createdAt,value
2019-04-28T19:20:15.432Z,24.92
2019-04-28T19:25:19.507Z,27.82
2019-04-28T19:31:18.828Z,35.88
2019-04-28T19:36:22.857Z,34.05
2019-04-28T19:41:26.884Z,25.23
2019-04-28T19:46:30.863Z,30.45
2019-04-28T19:51:34.951Z,24.43
2019-04-28T19:56:40.414Z,19.87
2019-04-28T20:01:44.428Z,18.52
2019-04-28T20:06:48.456Z,19.05
2019-04-28T20:11:52.478Z,22.35
2019-04-28T20:16:56.359Z,18.67
2019-04-28T20:22:00.431Z,20.48
2019-04-28T20:27:04.460Z,17.73
2019-04-28T20:32:08.432Z,16.67
2019-04-28T20:37:17.116Z,14.70
2019-04-28T20:42:40.799Z,13.65
2019-04-28T20:47:44.795Z,13.08
2019-04-28T20:52:48.703Z,13.65
2019-04-28T20:57:52.775Z,14.38
2019-04-28T21:02:56.803Z,13.55
2019-04-28T21:08:00.947Z,13.48
2019-04-28T21:13:04.809Z,11.22
2019-04-28T21:18:08.890Z,9.83
2019-04-28T21:23:12.911Z,11.90
2019-04-28T21:28:16.930Z,14.83
2019-04-28T21:33:20.814Z,15.48
2019-04-28T21:38:24.878Z,13.08
2019-04-28T21:43:30.548Z,19.15
2019-04-28T21:48:38.832Z,15.45
2019-04-28T21:53:42.899Z,14.93
2019-04-28T21:58:47.028Z,14.18
2019-04-28T22:03:51.065Z,13.62
2019-04-28T22:08:55.031Z,13.60
2019-04-28T22:13:59.212Z,13.72
2019-04-28T22:19:03.240Z,12.40
2019-04-28T22:24:08.805Z,13.25
2019-04-28T22:29:13.457Z,14.47
2019-04-28T22:34:17.887Z,10.68
2019-04-28T22:39:21.914Z,10.95
2019-04-28T22:44:25.945Z,9.25
2019-04-28T22:49:29.954Z,11.53
2019-04-28T22:54:35.627Z,9.83
2019-04-28T22:59:44.562Z,9.50
2019-04-28T23:04:52.890Z,7.20
2019-04-28T23:09:56.912Z,8.68
2019-04-28T23:15:00.939Z,9.58
2019-04-28T23:20:09.368Z,8.35
2019-04-28T23:25:13.836Z,11.65
2019-04-28T23:30:35.345Z,9.05
2019-04-28T23:35:39.575Z,8.15
2019-04-28T23:40:48.159Z,8.00
2019-04-28T23:45:52.340Z,8.13
2019-04-28T23:51:04.039Z,6.42
2019-04-28T23:56:08.068Z,8.80
